KPHP

Details ICAO KPHP
Name PHILIP
Region United States
Timezone America/Denver (UTC-6.0)
Plans Departing 0
Arriving 0
Stats Elevation 2,207 ft / 673 m (AMSL)
Location 44.048664° -101.599020°
Runways 2
Magnetic Variation 6.449° E
Sunrise 2018-05-20 11:16:30 UTC / 2018-05-20 05:16:30 Local
Sunset 2018-05-21 02:12:13 UTC / 2018-05-20 20:12:13 Local
Advertisement - Login to hide

Runways

ID Width Length Bearing (true) Bearing (mag) Surface Threshold Offset Overrun Length
05 150 ft / 46 m 3,593 ft / 1,095 m 63.16° 56.71° Grass 0 ft / 0 m 0 ft / 0 m
12 75 ft / 23 m 3,995 ft / 1,218 m 128.28° 121.83° Asphalt 0 ft / 0 m 0 ft / 0 m
23 150 ft / 46 m 3,593 ft / 1,095 m 243.16° 236.71° Grass 0 ft / 0 m 0 ft / 0 m
30 75 ft / 23 m 3,995 ft / 1,218 m 308.28° 301.83° Asphalt 0 ft / 0 m 0 ft / 0 m

Map

Weather


0- 5 10 15 20 25 30 35+ Temperature / ° C

Clouds and Precipitation
Forecast for 2018-05-20 12:00 UTC. Updated 3 hours ago

Ground ~20,000 ft ~40,000 ft Winds

METAR

KPHP 201355Z AUTO 12004KT 10SM CLR 10/05 A3027 RMK AO2 SLP250 T01000050

TAF

Not found

Frequencies

Recorded 118.37 MHz ASOS
Unicom 122.80 MHz CTAF/UNICOM
Warning: Do not use this data for real-world aviation or navigation. No guarantee of current accuracy is given.